Time;durP1;ratioP1;P1;durP2;ratioP2;P2;SDS_P1;SDS_P2;PMS_P1;PMS_P2;Temp;Humidity;BMP_temperature;BMP_pressure;BME280_temperature;BME280_humidity;BME280_pressure;Samples;Min_cycle;Max_cycle;Signal;HPM_P1;HPM_P2
2021/05/17 00:02:23;;;;;;;4.70;0.43;;;;;;;;;;4997789;28;20549;-71
2021/05/17 00:04:50;;;;;;;1.58;0.30;;;;;;;;;;4995787;28;20038;-70
2021/05/17 00:07:18;;;;;;;2.50;0.55;;;;;;;;;;5015664;28;20347;-72
2021/05/17 00:09:46;;;;;;;3.78;0.40;;;;;;;;;;5013473;28;20022;-70
2021/05/17 00:12:16;;;;;;;5.07;0.55;;;;;;;;;;4997223;28;20038;-70
2021/05/17 00:14:44;;;;;;;1.63;0.20;;;;;;;;;;5011800;28;20014;-71
2021/05/17 00:17:11;;;;;;;2.97;0.40;;;;;;;;;;5014913;28;20489;-71
2021/05/17 00:19:38;;;;;;;5.82;0.38;;;;;;;;;;5012108;28;20030;-70
2021/05/17 00:22:05;;;;;;;1.05;0.20;;;;;;;;;;5014568;28;20033;-71
2021/05/17 00:24:33;;;;;;;0.43;0.20;;;;;;;;;;5013695;28;20104;-70
2021/05/17 00:27:00;;;;;;;4.60;0.40;;;;;;;;;;5014708;28;20037;-71
2021/05/17 00:29:27;;;;;;;1.50;0.20;;;;;;;;;;5013158;28;20040;-70
2021/05/17 00:31:55;;;;;;;0.88;0.30;;;;;;;;;;5014420;28;20026;-69
2021/05/17 00:34:22;;;;;;;1.08;0.20;;;;;;;;;;5013502;28;20061;-70
2021/05/17 00:36:49;;;;;;;0.98;0.13;;;;;;;;;;5011988;28;20021;-70
2021/05/17 00:39:17;;;;;;;3.45;0.30;;;;;;;;;;5011768;28;20511;-69
2021/05/17 00:41:45;;;;;;;1.35;0.30;;;;;;;;;;5013989;28;20597;-70
2021/05/17 00:44:12;;;;;;;0.63;0.20;;;;;;;;;;5013519;28;20022;-70
2021/05/17 00:46:40;;;;;;;1.58;0.20;;;;;;;;;;5013202;28;20522;-70
2021/05/17 00:49:08;;;;;;;0.30;0.10;;;;;;;;;;4999237;28;20023;-69
2021/05/17 00:51:35;;;;;;;2.97;0.30;;;;;;;;;;4994118;28;20117;-69
2021/05/17 00:54:02;;;;;;;2.90;0.28;;;;;;;;;;5012280;28;20100;-69
2021/05/17 00:56:29;;;;;;;2.95;0.30;;;;;;;;;;5010138;28;20060;-69
2021/05/17 00:58:57;;;;;;;1.92;0.20;;;;;;;;;;5012791;28;20101;-70
2021/05/17 01:01:24;;;;;;;0.65;0.28;;;;;;;;;;5006840;28;20471;-70
2021/05/17 01:03:51;;;;;;;1.50;0.25;;;;;;;;;;5011984;28;20082;-69
2021/05/17 01:06:19;;;;;;;2.22;0.28;;;;;;;;;;5012850;28;20022;-68
2021/05/17 01:08:48;;;;;;;0.40;0.20;;;;;;;;;;5006949;28;20021;-70
2021/05/17 01:11:17;;;;;;;2.58;0.13;;;;;;;;;;5011670;28;20030;-70
2021/05/17 01:13:44;;;;;;;3.72;0.10;;;;;;;;;;5009254;28;20379;-69
2021/05/17 01:16:12;;;;;;;1.27;0.38;;;;;;;;;;5024177;28;20089;-69
2021/05/17 01:18:41;;;;;;;1.20;0.10;;;;;;;;;;5011496;28;20390;-70
2021/05/17 01:21:08;;;;;;;0.38;0.10;;;;;;;;;;5013133;28;20598;-70
2021/05/17 01:23:46;;;;;;;2.50;0.20;;;;;;;;;;5012029;28;20037;-70
2021/05/17 01:26:14;;;;;;;0.68;0.13;;;;;;;;;;5012876;28;20026;-69
2021/05/17 01:28:42;;;;;;;0.85;0.10;;;;;;;;;;5000565;28;20014;-70
2021/05/17 01:31:10;;;;;;;0.60;0.15;;;;;;;;;;5010270;28;20041;-70
2021/05/17 01:33:39;;;;;;;1.80;0.10;;;;;;;;;;5004256;28;20049;-70
2021/05/17 01:36:06;;;;;;;0.73;0.00;;;;;;;;;;5011140;28;20045;-69
2021/05/17 01:38:35;;;;;;;0.90;0.10;;;;;;;;;;4994249;28;20397;-69
2021/05/17 01:41:04;;;;;;;0.43;0.10;;;;;;;;;;5012965;28;20029;-70
2021/05/17 01:43:33;;;;;;;0.95;0.17;;;;;;;;;;5007626;28;20054;-71
2021/05/17 01:46:04;;;;;;;0.90;0.10;;;;;;;;;;5010915;28;20043;-69
2021/05/17 01:48:36;;;;;;;1.65;0.20;;;;;;;;;;5010799;28;20030;-70
2021/05/17 01:51:07;;;;;;;0.95;0.10;;;;;;;;;;5012519;28;20104;-70
2021/05/17 01:53:36;;;;;;;0.38;0.35;;;;;;;;;;5007149;28;20028;-70
2021/05/17 01:56:04;;;;;;;1.10;0.40;;;;;;;;;;5011775;28;20506;-70
2021/05/17 01:58:31;;;;;;;0.85;0.10;;;;;;;;;;5006639;28;20037;-70
2021/05/17 02:00:59;;;;;;;1.20;0.40;;;;;;;;;;4996849;28;20099;-70
2021/05/17 02:03:26;;;;;;;2.15;0.57;;;;;;;;;;5009463;28;20042;-69
2021/05/17 02:05:54;;;;;;;1.33;0.30;;;;;;;;;;5011252;28;20030;-70
2021/05/17 02:08:21;;;;;;;0.40;0.10;;;;;;;;;;5010726;28;20026;-70
2021/05/17 02:10:48;;;;;;;0.35;0.20;;;;;;;;;;4995036;28;20026;-69
2021/05/17 02:13:19;;;;;;;0.70;0.10;;;;;;;;;;5014110;28;20061;-70
2021/05/17 02:15:47;;;;;;;1.08;0.30;;;;;;;;;;4990874;28;21548;-69
2021/05/17 02:18:17;;;;;;;3.42;0.30;;;;;;;;;;4992768;28;20053;-69
2021/05/17 02:20:45;;;;;;;1.50;0.15;;;;;;;;;;5010243;28;20026;-70
2021/05/17 02:23:14;;;;;;;0.30;0.10;;;;;;;;;;5008950;28;20018;-71
2021/05/17 02:25:45;;;;;;;1.13;0.00;;;;;;;;;;5011479;28;20034;-69
2021/05/17 02:28:13;;;;;;;0.20;0.10;;;;;;;;;;4990960;28;20026;-70
2021/05/17 02:30:40;;;;;;;1.10;0.10;;;;;;;;;;4992270;28;20486;-71
2021/05/17 02:33:08;;;;;;;0.10;0.00;;;;;;;;;;5011323;28;20030;-70
2021/05/17 02:35:35;;;;;;;0.80;0.00;;;;;;;;;;5014831;28;20038;-70
2021/05/17 02:38:02;;;;;;;1.15;0.10;;;;;;;;;;5006898;28;20129;-71
2021/05/17 02:40:30;;;;;;;1.95;0.40;;;;;;;;;;5008590;28;20105;-70
2021/05/17 02:43:00;;;;;;;0.63;0.15;;;;;;;;;;5011335;28;20040;-70
2021/05/17 02:45:28;;;;;;;0.30;0.10;;;;;;;;;;5010551;28;20057;-70
2021/05/17 02:47:56;;;;;;;1.58;0.20;;;;;;;;;;5009167;28;20026;-70
2021/05/17 02:50:30;;;;;;;3.60;0.10;;;;;;;;;;4994065;28;20025;-70
2021/05/17 02:52:57;;;;;;;0.50;0.08;;;;;;;;;;5011567;28;20109;-70
2021/05/17 02:55:30;;;;;;;3.42;0.10;;;;;;;;;;5015921;28;20061;-70
2021/05/17 02:58:04;;;;;;;2.67;0.10;;;;;;;;;;5014001;28;20054;-70
2021/05/17 03:00:32;;;;;;;1.83;0.10;;;;;;;;;;5016224;28;20101;-71
2021/05/17 03:03:00;;;;;;;0.85;0.20;;;;;;;;;;5014560;28;20022;-70
2021/05/17 03:05:36;;;;;;;3.17;0.22;;;;;;;;;;5014328;28;20034;-71
2021/05/17 03:08:05;;;;;;;1.85;0.30;;;;;;;;;;5014099;28;20105;-71
2021/05/17 03:10:33;;;;;;;2.60;0.38;;;;;;;;;;5003989;28;20556;-70
2021/05/17 03:13:10;;;;;;;2.47;0.52;;;;;;;;;;5012726;28;20022;-71
2021/05/17 03:15:39;;;;;;;2.15;0.20;;;;;;;;;;5012896;28;20041;-70
2021/05/17 03:18:06;;;;;;;1.50;0.30;;;;;;;;;;5011631;28;20113;-71
2021/05/17 03:20:34;;;;;;;1.17;0.10;;;;;;;;;;5008870;28;20057;-69
2021/05/17 03:23:01;;;;;;;0.98;0.13;;;;;;;;;;5007597;28;20019;-69
2021/05/17 03:25:32;;;;;;;0.50;0.10;;;;;;;;;;5011564;28;20038;-69
2021/05/17 03:27:59;;;;;;;1.05;0.20;;;;;;;;;;5013759;28;20076;-69
2021/05/17 03:30:27;;;;;;;0.30;0.10;;;;;;;;;;5015306;28;20018;-70
2021/05/17 03:32:54;;;;;;;1.00;0.20;;;;;;;;;;5013902;28;20030;-69
2021/05/17 03:35:21;;;;;;;1.75;0.40;;;;;;;;;;5013767;28;20260;-69
2021/05/17 03:37:49;;;;;;;2.78;0.20;;;;;;;;;;5013958;28;20566;-69
2021/05/17 03:40:17;;;;;;;1.15;0.32;;;;;;;;;;5014987;28;20034;-69
2021/05/17 03:42:44;;;;;;;0.90;0.15;;;;;;;;;;5013628;28;20033;-69
2021/05/17 03:45:12;;;;;;;1.90;0.17;;;;;;;;;;5013415;28;20536;-68
2021/05/17 03:47:39;;;;;;;1.90;0.28;;;;;;;;;;5014247;28;20117;-68
2021/05/17 03:50:08;;;;;;;2.47;0.20;;;;;;;;;;5011224;28;20033;-69
2021/05/17 03:52:35;;;;;;;4.85;0.20;;;;;;;;;;5007376;28;20026;-69
2021/05/17 03:55:02;;;;;;;1.90;0.25;;;;;;;;;;5012398;28;20030;-69
2021/05/17 03:57:29;;;;;;;1.13;0.30;;;;;;;;;;5011231;28;20498;-69
2021/05/17 03:59:56;;;;;;;1.30;0.50;;;;;;;;;;4992588;28;20060;-69
2021/05/17 04:02:24;;;;;;;2.03;0.20;;;;;;;;;;4996917;28;20045;-68
2021/05/17 04:05:13;;;;;;;3.03;0.17;;;;;;;;;;5009279;28;20030;-69
2021/05/17 04:15:38;;;;;;;2.00;0.28;;;;;;;;;;5012858;28;20056;-69
2021/05/17 04:18:05;;;;;;;2.40;0.30;;;;;;;;;;5007035;28;20026;-69
2021/05/17 04:20:32;;;;;;;3.95;0.20;;;;;;;;;;5014358;28;20022;-68
2021/05/17 04:22:59;;;;;;;3.40;0.70;;;;;;;;;;5009370;28;20028;-68
2021/05/17 04:25:26;;;;;;;2.88;0.60;;;;;;;;;;5013998;28;20065;-69
2021/05/17 04:27:54;;;;;;;2.95;0.70;;;;;;;;;;4988720;28;20444;-69
2021/05/17 04:30:21;;;;;;;1.65;0.17;;;;;;;;;;5014312;28;20025;-69
2021/05/17 04:32:48;;;;;;;3.53;0.50;;;;;;;;;;5012132;28;20053;-68
2021/05/17 04:35:15;;;;;;;2.53;0.45;;;;;;;;;;5013944;28;20026;-68
2021/05/17 04:37:43;;;;;;;3.10;0.30;;;;;;;;;;5009546;28;20367;-67
2021/05/17 04:40:11;;;;;;;3.92;0.43;;;;;;;;;;5001356;28;20033;-69
2021/05/17 04:42:41;;;;;;;1.90;0.43;;;;;;;;;;5012058;28;20042;-68
2021/05/17 04:45:08;;;;;;;1.50;0.20;;;;;;;;;;5009955;28;20041;-68
2021/05/17 04:47:35;;;;;;;1.65;0.20;;;;;;;;;;5012822;28;20474;-68
2021/05/17 04:50:03;;;;;;;2.55;0.28;;;;;;;;;;4995270;28;20065;-68
2021/05/17 04:52:30;;;;;;;1.58;0.50;;;;;;;;;;5013499;28;20041;-67
2021/05/17 04:54:58;;;;;;;5.70;0.85;;;;;;;;;;5007690;28;20034;-68
2021/05/17 04:57:25;;;;;;;3.42;0.68;;;;;;;;;;5013612;28;20018;-69
2021/05/17 04:59:53;;;;;;;4.45;0.75;;;;;;;;;;5008578;28;20022;-69
2021/05/17 05:02:20;;;;;;;1.17;0.38;;;;;;;;;;5008835;28;20025;-69
2021/05/17 05:04:47;;;;;;;2.33;0.35;;;;;;;;;;5006061;28;20034;-68
2021/05/17 05:07:15;;;;;;;3.03;0.60;;;;;;;;;;5012955;28;20022;-68
2021/05/17 05:09:45;;;;;;;4.88;0.55;;;;;;;;;;5011676;28;20482;-68
2021/05/17 05:12:12;;;;;;;2.38;0.20;;;;;;;;;;5013196;28;20025;-68
2021/05/17 05:14:39;;;;;;;2.90;0.32;;;;;;;;;;5004926;28;20383;-68
2021/05/17 05:17:06;;;;;;;1.90;0.30;;;;;;;;;;5010634;28;20025;-69
2021/05/17 05:19:33;;;;;;;2.75;0.60;;;;;;;;;;5010960;28;20034;-69
2021/05/17 05:22:00;;;;;;;1.90;0.63;;;;;;;;;;5013068;28;20030;-69
2021/05/17 05:24:27;;;;;;;1.67;0.30;;;;;;;;;;5006135;28;20066;-69
2021/05/17 05:27:13;;;;;;;0.60;0.20;;;;;;;;;;5009924;28;20029;-69
2021/05/17 05:35:12;;;;;;;;;;;;;;;;;;4972237;28;20457;-70
2021/05/17 05:37:39;;;;;;;1.90;0.55;;;;;;;;;;4969055;28;20449;-69
2021/05/17 05:40:06;;;;;;;5.10;1.10;;;;;;;;;;4987246;28;20048;-70
2021/05/17 05:42:34;;;;;;;5.40;0.73;;;;;;;;;;5009001;28;20446;-69
2021/05/17 05:45:04;;;;;;;4.85;0.30;;;;;;;;;;5007751;28;20479;-70
2021/05/17 05:47:31;;;;;;;2.97;0.43;;;;;;;;;;5012598;28;20076;-71
2021/05/17 05:49:58;;;;;;;4.90;0.70;;;;;;;;;;4988969;28;20655;-70
2021/05/17 05:52:25;;;;;;;2.15;0.20;;;;;;;;;;5010214;28;20034;-70
2021/05/17 05:54:52;;;;;;;2.28;0.30;;;;;;;;;;5007782;28;20053;-71
2021/05/17 05:57:20;;;;;;;2.25;0.43;;;;;;;;;;5013144;28;20021;-70
2021/05/17 05:59:47;;;;;;;4.22;0.70;;;;;;;;;;4993069;28;20042;-70
2021/05/17 06:02:14;;;;;;;1.40;0.50;;;;;;;;;;5007611;28;20053;-71
2021/05/17 06:04:41;;;;;;;6.05;0.82;;;;;;;;;;5006336;28;20522;-71
2021/05/17 06:07:08;;;;;;;5.40;0.60;;;;;;;;;;5016180;28;20485;-68
2021/05/17 06:09:35;;;;;;;2.72;0.85;;;;;;;;;;5009992;28;20021;-68
2021/05/17 06:12:02;;;;;;;8.60;0.60;;;;;;;;;;5010393;28;20029;-68
2021/05/17 06:14:31;;;;;;;2.05;0.38;;;;;;;;;;5009001;28;20088;-67
2021/05/17 06:16:58;;;;;;;3.53;0.45;;;;;;;;;;5012551;28;20045;-68
2021/05/17 06:19:25;;;;;;;5.55;1.33;;;;;;;;;;4993907;28;20126;-68
2021/05/17 06:21:53;;;;;;;3.28;0.77;;;;;;;;;;5020728;28;20025;-68
2021/05/17 06:24:21;;;;;;;3.08;0.63;;;;;;;;;;5010624;28;20026;-68
2021/05/17 06:26:48;;;;;;;4.13;0.60;;;;;;;;;;5006939;28;20482;-68
2021/05/17 06:29:15;;;;;;;4.70;1.10;;;;;;;;;;5009430;28;20512;-68
2021/05/17 06:31:46;;;;;;;1.15;0.43;;;;;;;;;;5009114;28;20037;-68
2021/05/17 06:34:13;;;;;;;2.40;0.47;;;;;;;;;;4994089;28;20088;-68
2021/05/17 06:36:40;;;;;;;8.25;1.55;;;;;;;;;;5007793;28;20113;-68
2021/05/17 06:39:09;;;;;;;2.65;0.60;;;;;;;;;;5013984;28;20057;-68
2021/05/17 06:41:37;;;;;;;9.95;0.82;;;;;;;;;;4996906;28;20026;-68
2021/05/17 06:44:05;;;;;;;5.68;0.80;;;;;;;;;;5005432;28;20030;-68
2021/05/17 06:46:32;;;;;;;4.65;1.10;;;;;;;;;;5009092;28;20042;-68
2021/05/17 06:49:00;;;;;;;6.20;1.10;;;;;;;;;;5005334;28;20028;-68
2021/05/17 06:51:27;;;;;;;4.47;0.68;;;;;;;;;;5008988;28;20092;-68
2021/05/17 06:53:57;;;;;;;9.45;1.42;;;;;;;;;;5009627;28;20451;-68
2021/05/17 06:58:58;;;;;;;8.85;1.48;;;;;;;;;;5009942;28;20045;-68
2021/05/17 07:01:26;;;;;;;9.27;0.80;;;;;;;;;;5006491;28;20472;-68
2021/05/17 07:03:55;;;;;;;6.20;1.55;;;;;;;;;;5007958;28;20391;-67
2021/05/17 07:06:25;;;;;;;4.25;1.40;;;;;;;;;;5011472;28;20034;-67
2021/05/17 07:14:10;;;;;;;4.07;0.75;;;;;;;;;;5007407;28;20042;-69
2021/05/17 07:16:37;;;;;;;5.13;1.77;;;;;;;;;;5012086;28;20049;-69
2021/05/17 07:19:05;;;;;;;3.70;0.90;;;;;;;;;;5009909;28;20022;-69
2021/05/17 07:24:20;;;;;;;4.97;0.98;;;;;;;;;;4999292;28;20045;-69
2021/05/17 07:26:47;;;;;;;7.03;0.90;;;;;;;;;;5011805;28;20101;-68
2021/05/17 07:29:15;;;;;;;4.18;0.90;;;;;;;;;;5011103;28;20530;-68
2021/05/17 07:31:42;;;;;;;9.82;1.63;;;;;;;;;;5013542;28;20052;-68
2021/05/17 07:34:10;;;;;;;4.20;1.08;;;;;;;;;;4992495;28;20434;-68
2021/05/17 07:36:37;;;;;;;5.35;1.45;;;;;;;;;;5011157;28;20029;-69
2021/05/17 07:39:05;;;;;;;7.97;1.20;;;;;;;;;;5007773;28;20026;-68
2021/05/17 07:41:32;;;;;;;2.83;0.90;;;;;;;;;;5012860;28;20080;-69
2021/05/17 07:43:59;;;;;;;4.20;1.10;;;;;;;;;;4996286;28;20418;-68
2021/05/17 07:46:26;;;;;;;4.75;1.52;;;;;;;;;;4997590;28;20068;-69
2021/05/17 07:49:55;;;;;;;4.60;1.23;;;;;;;;;;5012060;28;20385;-68
2021/05/17 07:51:50;;;;;;;5.78;1.52;;;;;;;;;;4979480;28;20034;-68
2021/05/17 07:54:19;;;;;;;5.10;1.83;;;;;;;;;;5013613;28;20463;-68
2021/05/17 07:56:46;;;;;;;4.43;0.85;;;;;;;;;;5015287;28;20026;-69
2021/05/17 07:59:13;;;;;;;5.10;1.15;;;;;;;;;;5013881;28;20109;-68
2021/05/17 08:01:40;;;;;;;14.10;1.77;;;;;;;;;;5008734;28;20139;-68
2021/05/17 08:04:08;;;;;;;2.85;1.15;;;;;;;;;;5009851;28;20386;-68
2021/05/17 08:06:35;;;;;;;3.95;1.25;;;;;;;;;;5010453;28;20227;-68
2021/05/17 08:09:03;;;;;;;4.85;1.40;;;;;;;;;;5009916;28;20037;-68
2021/05/17 08:11:30;;;;;;;4.45;1.67;;;;;;;;;;5015588;28;20092;-68
2021/05/17 08:13:57;;;;;;;5.38;1.10;;;;;;;;;;5009924;28;20018;-68
2021/05/17 08:16:25;;;;;;;4.10;1.45;;;;;;;;;;5010484;28;20187;-67
2021/05/17 08:18:52;;;;;;;4.93;1.30;;;;;;;;;;5008208;28;20029;-68
2021/05/17 08:21:19;;;;;;;5.18;0.98;;;;;;;;;;5011628;28;20029;-68
2021/05/17 08:23:46;;;;;;;2.90;1.13;;;;;;;;;;5010269;28;20117;-68
2021/05/17 08:26:13;;;;;;;5.55;1.67;;;;;;;;;;5010217;28;20113;-68
2021/05/17 08:28:41;;;;;;;5.82;1.50;;;;;;;;;;5008575;28;20494;-69
2021/05/17 08:31:13;;;;;;;4.32;1.05;;;;;;;;;;5010607;28;20026;-68
2021/05/17 08:33:40;;;;;;;3.60;1.38;;;;;;;;;;5008775;28;20108;-68
2021/05/17 08:36:08;;;;;;;3.88;2.13;;;;;;;;;;5010655;28;20041;-68
2021/05/17 08:38:35;;;;;;;4.88;2.05;;;;;;;;;;5011844;28;20026;-68
2021/05/17 08:41:02;;;;;;;5.93;1.60;;;;;;;;;;5011075;28;20026;-68
2021/05/17 08:43:29;;;;;;;6.65;1.20;;;;;;;;;;5012800;28;20033;-68
2021/05/17 08:45:57;;;;;;;3.30;1.05;;;;;;;;;;5013477;28;20104;-68
2021/05/17 08:48:24;;;;;;;7.15;1.65;;;;;;;;;;5013620;28;20083;-68
2021/05/17 08:50:52;;;;;;;4.97;1.33;;;;;;;;;;5013891;28;20097;-67
2021/05/17 08:53:19;;;;;;;5.30;1.55;;;;;;;;;;5012407;28;20072;-68
2021/05/17 08:55:46;;;;;;;13.15;8.80;;;;;;;;;;5011518;28;20030;-67
2021/05/17 08:58:13;;;;;;;19.10;12.77;;;;;;;;;;5011504;28;20026;-67
2021/05/17 09:00:41;;;;;;;9.55;5.20;;;;;;;;;;5014406;28;20096;-67
2021/05/17 09:03:08;;;;;;;7.40;3.60;;;;;;;;;;5009063;28;20024;-67
2021/05/17 09:05:38;;;;;;;11.38;3.10;;;;;;;;;;5012538;28;20030;-67
2021/05/17 09:08:06;;;;;;;4.18;2.28;;;;;;;;;;5010074;28;20072;-67
2021/05/17 09:10:36;;;;;;;3.58;2.05;;;;;;;;;;5009409;28;20033;-67
2021/05/17 09:13:04;;;;;;;4.65;2.08;;;;;;;;;;5006906;28;20026;-68
2021/05/17 09:15:33;;;;;;;20.55;6.95;;;;;;;;;;5011157;28;20046;-68
2021/05/17 09:18:03;;;;;;;8.38;3.70;;;;;;;;;;5008262;28;20022;-68
2021/05/17 09:20:38;;;;;;;4.57;2.30;;;;;;;;;;5009945;28;20486;-68
2021/05/17 09:23:14;;;;;;;5.68;2.63;;;;;;;;;;5008193;28;20049;-67
2021/05/17 09:25:55;;;;;;;5.13;2.42;;;;;;;;;;4989617;28;20038;-67
2021/05/17 09:28:36;;;;;;;5.68;2.78;;;;;;;;;;5010039;28;20052;-67
2021/05/17 09:31:05;;;;;;;9.38;3.00;;;;;;;;;;5006631;28;20084;-68
2021/05/17 09:33:42;;;;;;;5.10;1.38;;;;;;;;;;5008307;28;20096;-68
2021/05/17 09:36:27;;;;;;;3.95;1.20;;;;;;;;;;5007001;28;20458;-66
2021/05/17 09:39:01;;;;;;;5.10;0.95;;;;;;;;;;5004807;28;20030;-66
2021/05/17 09:41:28;;;;;;;;;;;;;;;;;;5009905;28;20034;-67
2021/05/17 09:43:55;;;;;;;2.65;1.10;;;;;;;;;;4988840;28;19909;-67
2021/05/17 09:46:22;;;;;;;3.72;1.08;;;;;;;;;;5010531;28;20390;-67
2021/05/17 09:48:50;;;;;;;4.30;1.17;;;;;;;;;;4992648;28;20470;-67
2021/05/17 09:51:18;;;;;;;2.17;0.80;;;;;;;;;;5006016;28;20033;-67
2021/05/17 09:53:46;;;;;;;2.45;0.90;;;;;;;;;;5006807;28;20018;-67
2021/05/17 09:56:19;;;;;;;3.22;0.73;;;;;;;;;;5010419;28;20049;-67
2021/05/17 09:58:47;;;;;;;2.70;1.30;;;;;;;;;;5006507;28;20478;-67
2021/05/17 10:01:15;;;;;;;1.20;0.63;;;;;;;;;;5010438;28;20068;-67
2021/05/17 10:03:44;;;;;;;4.70;1.30;;;;;;;;;;5010879;28;20084;-67
2021/05/17 10:06:17;;;;;;;4.47;0.98;;;;;;;;;;5012958;28;20041;-67
2021/05/17 10:08:45;;;;;;;2.63;0.80;;;;;;;;;;5006904;28;20018;-67
2021/05/17 10:11:12;;;;;;;3.25;1.27;;;;;;;;;;5005127;28;20498;-67
2021/05/17 10:13:40;;;;;;;2.50;0.68;;;;;;;;;;4999007;28;20018;-67
2021/05/17 10:16:11;;;;;;;1.88;0.70;;;;;;;;;;5005601;28;20081;-67
2021/05/17 10:18:39;;;;;;;3.50;1.17;;;;;;;;;;5010972;28;20022;-67
2021/05/17 10:21:08;;;;;;;3.17;1.20;;;;;;;;;;5012982;28;20502;-67
2021/05/17 10:23:41;;;;;;;3.53;1.10;;;;;;;;;;5011031;28;20030;-67
2021/05/17 10:26:23;;;;;;;3.83;1.27;;;;;;;;;;5008702;28;20413;-67
2021/05/17 10:28:52;;;;;;;2.72;0.90;;;;;;;;;;5013636;28;20029;-67
2021/05/17 10:31:20;;;;;;;4.97;1.00;;;;;;;;;;5013400;28;20493;-67
2021/05/17 10:34:06;;;;;;;4.35;1.17;;;;;;;;;;5012843;28;20030;-67
2021/05/17 10:36:54;;;;;;;2.88;1.05;;;;;;;;;;5012971;28;20025;-67
2021/05/17 10:39:25;;;;;;;3.00;1.02;;;;;;;;;;4993421;28;20057;-67
2021/05/17 10:42:15;;;;;;;2.85;1.10;;;;;;;;;;5010206;28;20084;-67
2021/05/17 10:47:46;;;;;;;4.00;1.27;;;;;;;;;;5003729;28;20057;-67
2021/05/17 10:50:15;;;;;;;2.35;1.08;;;;;;;;;;5002286;28;20025;-67
2021/05/17 10:52:42;;;;;;;3.38;1.05;;;;;;;;;;5012669;28;20389;-67
2021/05/17 10:55:11;;;;;;;3.95;1.25;;;;;;;;;;4995679;28;20033;-67
2021/05/17 10:57:57;;;;;;;2.22;0.77;;;;;;;;;;5013239;28;20022;-66
2021/05/17 11:00:29;;;;;;;1.42;0.70;;;;;;;;;;5005200;28;20382;-66
2021/05/17 11:03:18;;;;;;;2.03;0.90;;;;;;;;;;5012176;28;20037;-67
2021/05/17 11:05:45;;;;;;;3.10;1.13;;;;;;;;;;4998637;28;20037;-68
2021/05/17 11:08:16;;;;;;;1.40;0.75;;;;;;;;;;5012107;28;20026;-67
2021/05/17 11:10:45;;;;;;;1.70;0.80;;;;;;;;;;5009264;28;20041;-67
2021/05/17 11:13:14;;;;;;;3.78;0.90;;;;;;;;;;5012053;28;20030;-67
2021/05/17 11:15:47;;;;;;;3.38;0.80;;;;;;;;;;5015656;28;20054;-67
2021/05/17 11:18:20;;;;;;;3.33;1.17;;;;;;;;;;5015684;28;20453;-67
2021/05/17 11:20:51;;;;;;;5.67;1.10;;;;;;;;;;5015638;28;20026;-68
2021/05/17 11:23:28;;;;;;;1.98;0.77;;;;;;;;;;5015524;28;20033;-68
2021/05/17 11:26:06;;;;;;;2.55;0.85;;;;;;;;;;5007628;28;20121;-68
2021/05/17 11:33:50;;;;;;;2.92;1.08;;;;;;;;;;5011038;28;20039;-68
2021/05/17 11:36:23;;;;;;;3.30;1.15;;;;;;;;;;5016410;28;20363;-68
2021/05/17 11:39:16;;;;;;;2.17;1.25;;;;;;;;;;5012570;28;20029;-68
2021/05/17 11:41:45;;;;;;;2.00;1.25;;;;;;;;;;5011238;28;20025;-67
2021/05/17 11:44:17;;;;;;;3.38;1.55;;;;;;;;;;5008563;28;20025;-68
2021/05/17 11:46:49;;;;;;;5.32;1.70;;;;;;;;;;5012362;28;20396;-68
2021/05/17 11:49:17;;;;;;;3.28;1.45;;;;;;;;;;5011126;28;20025;-68
2021/05/17 11:51:55;;;;;;;3.28;1.10;;;;;;;;;;5014689;28;20064;-68
2021/05/17 11:54:23;;;;;;;3.28;1.13;;;;;;;;;;5010300;28;20050;-67
2021/05/17 11:56:52;;;;;;;2.47;1.08;;;;;;;;;;5005554;28;20083;-67
2021/05/17 11:59:20;;;;;;;3.97;1.17;;;;;;;;;;5011116;28;20018;-68
2021/05/17 12:01:48;;;;;;;2.60;1.33;;;;;;;;;;5012168;28;20029;-68
2021/05/17 12:04:17;;;;;;;5.20;1.17;;;;;;;;;;5010577;28;20112;-67
2021/05/17 12:06:46;;;;;;;2.17;1.13;;;;;;;;;;5009871;28;20026;-68
2021/05/17 12:09:13;;;;;;;3.60;1.10;;;;;;;;;;4990491;28;20050;-68
2021/05/17 12:11:50;;;;;;;3.17;1.20;;;;;;;;;;5010227;28;20022;-67
2021/05/17 12:14:17;;;;;;;4.60;0.80;;;;;;;;;;5007430;28;20026;-67
2021/05/17 12:16:44;;;;;;;1.80;0.98;;;;;;;;;;5013132;28;20046;-66
2021/05/17 12:19:17;;;;;;;2.17;0.90;;;;;;;;;;5009148;28;20433;-68
2021/05/17 12:21:44;;;;;;;2.38;0.80;;;;;;;;;;4993695;28;20056;-68
2021/05/17 12:24:24;;;;;;;3.10;1.05;;;;;;;;;;5010368;28;20032;-67
2021/05/17 12:26:57;;;;;;;2.75;1.10;;;;;;;;;;5010197;28;20025;-67
2021/05/17 12:29:25;;;;;;;3.50;0.90;;;;;;;;;;5013383;28;20083;-67
2021/05/17 12:31:52;;;;;;;2.15;0.75;;;;;;;;;;5012292;28;20014;-67
2021/05/17 12:34:19;;;;;;;3.10;0.63;;;;;;;;;;5005252;28;20045;-67
2021/05/17 12:36:48;;;;;;;2.75;0.90;;;;;;;;;;5013112;28;20101;-67
2021/05/17 12:39:19;;;;;;;2.80;0.98;;;;;;;;;;4995572;28;20033;-67
2021/05/17 12:41:47;;;;;;;2.15;0.77;;;;;;;;;;5011629;28;20490;-67
2021/05/17 12:44:46;;;;;;;2.75;0.90;;;;;;;;;;4995255;28;20379;-67
2021/05/17 12:47:14;;;;;;;4.40;0.98;;;;;;;;;;4958210;28;20050;-67
2021/05/17 12:49:59;;;;;;;2.90;0.80;;;;;;;;;;5012202;28;20030;-67
2021/05/17 12:52:25;;;;;;;;;;;;;;;;;;5012633;28;20493;-67
2021/05/17 12:55:13;;;;;;;2.42;1.25;;;;;;;;;;5015129;28;19915;-67
2021/05/17 12:57:47;;;;;;;2.90;0.93;;;;;;;;;;5009264;28;20018;-67
2021/05/17 13:00:15;;;;;;;2.83;1.17;;;;;;;;;;5007902;28;20100;-68
2021/05/17 13:02:43;;;;;;;2.78;1.20;;;;;;;;;;5011176;28;20037;-67
2021/05/17 13:05:10;;;;;;;2.40;1.20;;;;;;;;;;5010749;28;20117;-68
2021/05/17 13:07:57;;;;;;;2.65;1.10;;;;;;;;;;5012005;28;20474;-67
2021/05/17 13:10:24;;;;;;;4.53;1.83;;;;;;;;;;5004353;28;20045;-67
2021/05/17 13:12:53;;;;;;;3.83;1.23;;;;;;;;;;5010808;28;20048;-67
2021/05/17 13:15:24;;;;;;;7.03;1.00;;;;;;;;;;5005080;28;20426;-67
2021/05/17 13:18:08;;;;;;;1.90;1.05;;;;;;;;;;4992370;28;20053;-67
2021/05/17 13:20:35;;;;;;;1.50;0.85;;;;;;;;;;5011995;28;20372;-67
2021/05/17 13:32:07;;;;;;;3.40;1.25;;;;;;;;;;4933230;29;20063;-67
2021/05/17 13:34:34;;;;;;;5.60;0.85;;;;;;;;;;4975347;28;20037;-67
2021/05/17 13:37:01;;;;;;;3.45;1.50;;;;;;;;;;5012416;28;20057;-67
2021/05/17 13:39:29;;;;;;;2.10;0.63;;;;;;;;;;5012412;28;20433;-67
2021/05/17 13:41:56;;;;;;;4.45;1.13;;;;;;;;;;5012798;28;20374;-67
2021/05/17 13:44:23;;;;;;;3.00;0.68;;;;;;;;;;5011071;28;20048;-68
2021/05/17 13:46:53;;;;;;;3.20;0.75;;;;;;;;;;5010623;28;20033;-67
2021/05/17 13:49:21;;;;;;;3.00;1.40;;;;;;;;;;5010445;28;20029;-66
2021/05/17 13:51:49;;;;;;;2.58;1.02;;;;;;;;;;5011543;28;20029;-67
2021/05/17 13:54:19;;;;;;;4.07;0.90;;;;;;;;;;5012336;28;20121;-66
2021/05/17 13:56:47;;;;;;;7.00;1.58;;;;;;;;;;5008436;28;20033;-66
2021/05/17 13:59:14;;;;;;;3.85;1.30;;;;;;;;;;5011521;28;20078;-66
2021/05/17 14:01:41;;;;;;;2.63;1.10;;;;;;;;;;5015029;28;20038;-67
2021/05/17 14:04:09;;;;;;;2.67;1.10;;;;;;;;;;4995228;28;20026;-66
2021/05/17 14:06:36;;;;;;;2.95;1.00;;;;;;;;;;5009078;28;20088;-67
2021/05/17 14:09:04;;;;;;;4.40;1.00;;;;;;;;;;5008661;28;20037;-66
2021/05/17 14:11:31;;;;;;;2.35;1.02;;;;;;;;;;5012412;28;20033;-66
2021/05/17 14:13:58;;;;;;;3.03;1.45;;;;;;;;;;5009917;28;20022;-67
2021/05/17 14:16:26;;;;;;;3.30;1.10;;;;;;;;;;5008832;28;20052;-66
2021/05/17 14:18:53;;;;;;;3.53;1.27;;;;;;;;;;4992827;28;20026;-67
2021/05/17 14:21:20;;;;;;;3.17;1.05;;;;;;;;;;5009127;28;20080;-67
2021/05/17 14:23:47;;;;;;;4.85;1.42;;;;;;;;;;4988602;28;20029;-67
2021/05/17 14:26:14;;;;;;;2.35;1.35;;;;;;;;;;5012195;28;20120;-66
2021/05/17 14:28:46;;;;;;;3.40;1.20;;;;;;;;;;5001562;28;20060;-66
2021/05/17 14:31:14;;;;;;;2.85;1.23;;;;;;;;;;5009666;28;20121;-67
2021/05/17 14:33:41;;;;;;;2.60;1.50;;;;;;;;;;4994180;28;20029;-66
2021/05/17 14:36:08;;;;;;;2.88;1.45;;;;;;;;;;5008906;28;20042;-66
2021/05/17 14:38:36;;;;;;;5.95;1.65;;;;;;;;;;5008792;28;20018;-66
2021/05/17 14:41:03;;;;;;;2.70;1.40;;;;;;;;;;5011487;28;20021;-66
2021/05/17 14:43:31;;;;;;;2.17;1.08;;;;;;;;;;5009142;28;20026;-66
2021/05/17 14:45:59;;;;;;;6.35;1.83;;;;;;;;;;5008314;28;20121;-67
2021/05/17 14:48:26;;;;;;;3.67;1.63;;;;;;;;;;5010000;28;20426;-67
2021/05/17 14:50:54;;;;;;;7.07;2.40;;;;;;;;;;5013355;28;20023;-66
2021/05/17 14:53:22;;;;;;;6.38;1.50;;;;;;;;;;5017527;28;20030;-67
2021/05/17 14:55:49;;;;;;;4.85;1.40;;;;;;;;;;5016457;28;20096;-66
2021/05/17 14:58:16;;;;;;;6.57;1.45;;;;;;;;;;5012609;28;20056;-67
2021/05/17 15:00:44;;;;;;;4.82;1.35;;;;;;;;;;5015692;28;20072;-66
2021/05/17 15:03:12;;;;;;;6.10;1.98;;;;;;;;;;5003791;28;20426;-66
2021/05/17 15:05:39;;;;;;;6.35;2.00;;;;;;;;;;5018117;28;20061;-66
2021/05/17 15:08:07;;;;;;;4.13;1.63;;;;;;;;;;5016922;28;20109;-66
2021/05/17 15:10:35;;;;;;;4.03;2.08;;;;;;;;;;5016666;28;20032;-67
2021/05/17 15:13:02;;;;;;;5.85;1.50;;;;;;;;;;5015836;28;20494;-67
2021/05/17 15:15:29;;;;;;;7.63;2.17;;;;;;;;;;5017696;28;20054;-66
2021/05/17 15:17:57;;;;;;;4.53;1.58;;;;;;;;;;5019359;28;20085;-66
2021/05/17 15:20:25;;;;;;;4.68;1.50;;;;;;;;;;5016986;28;20568;-66
2021/05/17 15:22:52;;;;;;;4.63;1.40;;;;;;;;;;5017820;28;20389;-66
2021/05/17 15:25:20;;;;;;;4.28;1.55;;;;;;;;;;5014134;28;20046;-66
2021/05/17 15:27:48;;;;;;;3.85;1.73;;;;;;;;;;5018434;28;20490;-66
2021/05/17 15:30:17;;;;;;;6.50;1.95;;;;;;;;;;5018905;28;20029;-66
2021/05/17 15:32:44;;;;;;;4.45;2.42;;;;;;;;;;5017749;28;20014;-66
2021/05/17 15:35:11;;;;;;;3.63;1.60;;;;;;;;;;5017967;28;20029;-66
2021/05/17 15:37:38;;;;;;;4.65;2.40;;;;;;;;;;5015050;28;20018;-66